Time;durP1;ratioP1;P1;durP2;ratioP2;P2;SDS_P1;SDS_P2;PMS_P1;PMS_P2;Temp;Humidity;BMP_temperature;BMP_pressure;BME280_temperature;BME280_humidity;BME280_pressure;Samples;Min_cycle;Max_cycle;Signal;HPM_P1;HPM_P2
2021/06/20 00:01:15;;;;;;;6.07;4.90;;;16.80;99.90;;;;;;4189474;28;20048;-60
2021/06/20 00:03:16;;;;;;;6.97;3.90;;;16.80;99.90;;;;;;4189629;28;20033;-61
2021/06/20 00:05:38;;;;;;;5.03;3.90;;;16.80;99.90;;;;;;4189180;28;20090;-59
2021/06/20 00:07:41;;;;;;;11.20;3.85;;;16.80;99.90;;;;;;4173761;28;20075;-60
2021/06/20 00:09:43;;;;;;;7.65;4.18;;;16.80;99.90;;;;;;4172840;28;20060;-59
2021/06/20 00:11:47;;;;;;;6.13;3.72;;;16.80;99.90;;;;;;4173625;28;20036;-56
2021/06/20 00:13:48;;;;;;;24.30;5.60;;;16.80;99.90;;;;;;4188436;28;20036;-58
2021/06/20 00:15:50;;;;;;;5.82;4.15;;;16.80;99.90;;;;;;4189872;28;20045;-57
2021/06/20 00:17:51;;;;;;;8.88;5.28;;;16.80;99.90;;;;;;4189639;28;20124;-58
2021/06/20 00:19:53;;;;;;;7.10;4.53;;;16.80;99.90;;;;;;4190439;28;20202;-57
2021/06/20 00:21:54;;;;;;;11.68;4.05;;;16.80;99.90;;;;;;4188913;28;20044;-56
2021/06/20 00:23:55;;;;;;;7.18;3.58;;;16.80;99.90;;;;;;4190276;28;20044;-59
2021/06/20 00:25:58;;;;;;;8.88;4.78;;;16.80;99.90;;;;;;4189114;28;20078;-60
2021/06/20 00:28:00;;;;;;;7.75;5.07;;;16.80;99.90;;;;;;4189575;28;20037;-56
2021/06/20 00:30:05;;;;;;;8.77;4.88;;;16.80;99.90;;;;;;4188810;28;20457;-57
2021/06/20 00:32:06;;;;;;;8.95;3.95;;;16.80;99.90;;;;;;4189507;28;20040;-58
2021/06/20 00:34:07;;;;;;;8.23;4.40;;;16.70;99.90;;;;;;4189294;28;20815;-55
2021/06/20 00:36:09;;;;;;;7.20;4.15;;;16.70;99.90;;;;;;4188296;28;20044;-59
2021/06/20 00:38:10;;;;;;;4.13;3.65;;;16.70;99.90;;;;;;4189654;28;20058;-59
2021/06/20 00:40:13;;;;;;;7.25;4.07;;;16.60;99.90;;;;;;4189246;28;20090;-59
2021/06/20 00:42:14;;;;;;;8.60;3.90;;;16.60;99.90;;;;;;4189578;28;20465;-55
2021/06/20 00:44:15;;;;;;;7.65;4.40;;;16.60;99.90;;;;;;4185121;28;20514;-56
2021/06/20 00:46:16;;;;;;;9.00;4.30;;;16.60;99.90;;;;;;4193293;28;20036;-54
2021/06/20 00:48:17;;;;;;;6.03;4.00;;;16.60;99.90;;;;;;4191484;28;20484;-60
2021/06/20 00:50:18;;;;;;;7.18;4.43;;;16.60;99.90;;;;;;4192923;28;20040;-53
2021/06/20 00:52:21;;;;;;;10.25;4.40;;;16.60;99.90;;;;;;4191637;28;20101;-56
2021/06/20 00:54:22;;;;;;;7.53;4.00;;;16.50;99.90;;;;;;4192688;28;20040;-57
2021/06/20 00:56:23;;;;;;;5.00;3.72;;;16.50;99.90;;;;;;4191501;28;20040;-56
2021/06/20 00:58:25;;;;;;;9.90;3.88;;;16.50;99.90;;;;;;4192813;28;20048;-55
2021/06/20 01:00:27;;;;;;;4.65;3.08;;;16.50;99.90;;;;;;4191594;28;20114;-57
2021/06/20 01:02:28;;;;;;;5.95;4.10;;;16.50;99.90;;;;;;4192641;28;20032;-55
2021/06/20 01:04:29;;;;;;;11.60;5.00;;;16.40;99.90;;;;;;4191913;28;20028;-60
2021/06/20 01:06:31;;;;;;;7.63;4.63;;;16.50;99.90;;;;;;4191785;28;20066;-58
2021/06/20 01:08:32;;;;;;;8.15;3.75;;;16.50;99.90;;;;;;4191366;28;20102;-59
2021/06/20 01:10:36;;;;;;;8.95;4.10;;;16.50;99.90;;;;;;4191977;28;20036;-59
2021/06/20 01:12:38;;;;;;;8.30;4.45;;;16.50;99.90;;;;;;4192614;28;20024;-58
2021/06/20 01:14:41;;;;;;;5.85;4.30;;;16.50;99.90;;;;;;4191660;28;20021;-57
2021/06/20 01:16:42;;;;;;;9.15;4.05;;;16.50;99.90;;;;;;4193041;28;20032;-58
2021/06/20 01:18:44;;;;;;;5.57;4.32;;;16.60;99.90;;;;;;4191517;28;20040;-58
2021/06/20 01:20:47;;;;;;;7.20;4.03;;;16.60;99.90;;;;;;4192753;28;20716;-59
2021/06/20 01:22:51;;;;;;;5.43;4.05;;;16.60;99.90;;;;;;4190802;28;20032;-52
2021/06/20 01:24:58;;;;;;;6.30;4.85;;;16.60;99.90;;;;;;4192845;28;20894;-60
2021/06/20 01:26:59;;;;;;;5.45;4.13;;;16.60;99.90;;;;;;4191495;28;20033;-58
2021/06/20 01:29:05;;;;;;;6.97;4.18;;;16.70;99.90;;;;;;4192219;28;20040;-56
2021/06/20 01:31:11;;;;;;;6.90;4.18;;;16.70;99.90;;;;;;4191543;28;20090;-58
2021/06/20 01:33:13;;;;;;;8.52;6.18;;;16.70;99.90;;;;;;4192364;28;20048;-59
2021/06/20 01:35:15;;;;;;;10.25;6.88;;;16.70;99.90;;;;;;4190905;28;20036;-59
2021/06/20 01:37:17;;;;;;;12.38;7.57;;;16.70;99.90;;;;;;4192368;28;20064;-60
2021/06/20 01:39:18;;;;;;;13.80;7.82;;;16.70;99.90;;;;;;4191555;28;20033;-58
2021/06/20 01:41:20;;;;;;;11.80;8.00;;;16.70;99.90;;;;;;4192680;28;20040;-61
2021/06/20 01:43:21;;;;;;;12.07;7.03;;;16.70;99.90;;;;;;4191227;28;20089;-60
2021/06/20 01:45:24;;;;;;;12.77;7.85;;;16.70;99.90;;;;;;4190859;28;20029;-61
2021/06/20 01:47:26;;;;;;;11.40;7.63;;;16.80;99.90;;;;;;4191779;28;20422;-58
2021/06/20 01:49:28;;;;;;;10.18;6.60;;;16.80;99.90;;;;;;4190907;28;21017;-61
2021/06/20 01:51:29;;;;;;;10.65;6.40;;;16.80;99.90;;;;;;4192064;28;20032;-58
2021/06/20 01:53:30;;;;;;;9.57;6.50;;;16.80;99.90;;;;;;4191191;28;20044;-59
2021/06/20 01:55:31;;;;;;;11.40;6.13;;;16.80;99.90;;;;;;4192160;28;20033;-54
2021/06/20 01:57:35;;;;;;;6.78;3.70;;;16.80;99.90;;;;;;4191231;28;20117;-57
2021/06/20 01:59:36;;;;;;;6.22;3.38;;;16.70;99.90;;;;;;4190456;28;20075;-59
2021/06/20 02:01:37;;;;;;;6.35;3.83;;;16.60;99.90;;;;;;4190667;28;20505;-60
2021/06/20 02:03:39;;;;;;;3.90;3.20;;;16.40;99.90;;;;;;4192361;28;21032;-57
2021/06/20 02:05:41;;;;;;;8.70;4.18;;;16.30;99.90;;;;;;4190665;28;20040;-59
2021/06/20 02:07:43;;;;;;;6.22;3.83;;;16.10;99.90;;;;;;4191734;28;20090;-58
2021/06/20 02:09:44;;;;;;;7.70;4.10;;;16.00;99.90;;;;;;4191220;28;20102;-55
2021/06/20 02:11:45;;;;;;;10.07;4.07;;;16.00;99.90;;;;;;4191077;28;20098;-57
2021/06/20 02:13:47;;;;;;;6.18;4.10;;;16.00;99.90;;;;;;4190647;28;20082;-57
2021/06/20 02:15:48;;;;;;;6.50;4.35;;;16.00;99.90;;;;;;4190892;28;20037;-59
2021/06/20 02:17:50;;;;;;;5.43;3.78;;;16.00;99.90;;;;;;4191199;28;20120;-53
2021/06/20 02:19:57;;;;;;;6.93;3.97;;;16.00;99.90;;;;;;4190383;28;20040;-56
2021/06/20 02:21:58;;;;;;;10.05;4.40;;;16.00;99.90;;;;;;4189862;28;20111;-56
2021/06/20 02:23:59;;;;;;;5.28;3.35;;;16.00;99.90;;;;;;4189434;28;20102;-58
2021/06/20 02:26:00;;;;;;;6.68;3.67;;;16.00;99.90;;;;;;4191400;28;20558;-57
2021/06/20 02:28:02;;;;;;;6.55;3.78;;;16.00;99.90;;;;;;4189983;28;20036;-57
2021/06/20 02:30:04;;;;;;;4.78;3.80;;;16.00;99.90;;;;;;4190924;28;20036;-60
2021/06/20 02:32:06;;;;;;;8.15;3.95;;;16.00;99.90;;;;;;4189823;28;20044;-57
2021/06/20 02:34:07;;;;;;;5.88;3.67;;;15.90;99.90;;;;;;4191285;28;20094;-57
2021/06/20 02:36:08;;;;;;;3.63;3.10;;;15.90;99.90;;;;;;4190512;28;20444;-56
2021/06/20 02:38:09;;;;;;;6.10;3.38;;;15.90;99.90;;;;;;4190644;28;20079;-58
2021/06/20 02:40:11;;;;;;;4.80;3.22;;;15.90;99.90;;;;;;4190383;28;20074;-53
2021/06/20 02:42:13;;;;;;;6.63;3.53;;;15.80;99.90;;;;;;4191138;28;20040;-58
2021/06/20 02:44:14;;;;;;;5.68;3.58;;;15.70;99.90;;;;;;4189523;28;20021;-56
2021/06/20 02:46:15;;;;;;;5.68;3.63;;;15.70;99.90;;;;;;4190748;28;20451;-54
2021/06/20 02:48:16;;;;;;;3.92;3.28;;;15.80;99.90;;;;;;4189943;28;20044;-52
2021/06/20 02:50:18;;;;;;;4.45;3.38;;;15.80;99.90;;;;;;4190179;28;20028;-58
2021/06/20 02:52:19;;;;;;;3.67;3.08;;;15.90;99.90;;;;;;4190669;28;20464;-58
2021/06/20 02:54:21;;;;;;;4.00;3.17;;;16.00;99.90;;;;;;4189370;28;20036;-57
2021/06/20 02:56:22;;;;;;;4.43;3.58;;;16.00;99.90;;;;;;4191066;28;20094;-60
2021/06/20 02:58:23;;;;;;;4.63;3.13;;;16.00;99.90;;;;;;4189782;28;20049;-57
2021/06/20 03:00:24;;;;;;;4.55;2.72;;;16.10;99.90;;;;;;4191292;28;20052;-61
2021/06/20 03:02:25;;;;;;;6.30;3.40;;;16.20;99.90;;;;;;4189887;28;20455;-60
2021/06/20 03:04:26;;;;;;;3.92;3.15;;;16.30;99.90;;;;;;4190918;28;20413;-60
2021/06/20 03:06:27;;;;;;;5.70;3.13;;;16.30;99.90;;;;;;4189708;28;20078;-58
2021/06/20 03:08:29;;;;;;;3.95;3.35;;;16.30;99.90;;;;;;4190067;28;20044;-61
2021/06/20 03:10:30;;;;;;;10.45;3.45;;;16.30;99.90;;;;;;4189859;28;20044;-61
2021/06/20 03:12:31;;;;;;;7.00;3.50;;;16.30;99.90;;;;;;4190890;28;20078;-60
2021/06/20 03:14:33;;;;;;;6.22;3.75;;;16.30;99.90;;;;;;4189194;28;20020;-59
2021/06/20 03:16:35;;;;;;;7.03;4.10;;;16.20;99.90;;;;;;4189783;28;20496;-54
2021/06/20 03:18:36;;;;;;;4.22;3.53;;;16.20;99.90;;;;;;4189980;28;20046;-61
2021/06/20 03:20:37;;;;;;;7.18;4.03;;;16.20;99.90;;;;;;4189560;28;20052;-59
2021/06/20 03:22:38;;;;;;;6.60;3.90;;;16.20;99.90;;;;;;4189819;28;20182;-54
2021/06/20 03:24:43;;;;;;;5.85;4.10;;;16.20;99.90;;;;;;4189173;28;20443;-59
2021/06/20 03:26:44;;;;;;;10.57;3.95;;;16.20;99.90;;;;;;4190926;28;20448;-59
2021/06/20 03:28:45;;;;;;;3.90;3.33;;;16.20;99.90;;;;;;4189089;28;20036;-59
2021/06/20 03:30:46;;;;;;;5.63;2.97;;;16.20;99.90;;;;;;4190289;28;20093;-59
2021/06/20 03:32:47;;;;;;;5.22;2.90;;;16.20;99.90;;;;;;4189016;28;20091;-58
2021/06/20 03:34:49;;;;;;;8.75;3.70;;;16.20;99.90;;;;;;4190699;28;20102;-58
2021/06/20 03:36:50;;;;;;;6.32;3.70;;;16.20;99.90;;;;;;4189436;28;20488;-59
2021/06/20 03:38:52;;;;;;;8.30;3.38;;;16.20;99.90;;;;;;4190110;28;20021;-60
2021/06/20 03:40:54;;;;;;;7.68;3.80;;;16.10;99.90;;;;;;4189637;28;20558;-61
2021/06/20 03:42:55;;;;;;;7.07;3.40;;;16.10;99.90;;;;;;4190522;28;20086;-57
2021/06/20 03:44:56;;;;;;;8.60;4.35;;;16.10;99.90;;;;;;4189460;28;20033;-59
2021/06/20 03:46:58;;;;;;;5.68;3.80;;;16.20;99.90;;;;;;4190540;28;20037;-60
2021/06/20 03:48:59;;;;;;;7.13;4.32;;;16.20;99.90;;;;;;4189384;28;20105;-60
2021/06/20 03:51:01;;;;;;;5.05;3.90;;;16.30;99.90;;;;;;4189478;28;20481;-57
2021/06/20 03:53:02;;;;;;;6.70;4.40;;;16.50;99.90;;;;;;4189822;28;20078;-60
2021/06/20 03:55:05;;;;;;;5.88;4.32;;;16.70;99.90;;;;;;4189428;28;20048;-60
2021/06/20 03:57:06;;;;;;;6.82;4.15;;;16.80;99.90;;;;;;4190157;28;20025;-58
2021/06/20 03:59:09;;;;;;;5.63;4.18;;;16.90;99.90;;;;;;4188595;28;20492;-59
2021/06/20 04:01:10;;;;;;;9.23;3.83;;;17.00;99.90;;;;;;4190167;28;20473;-57
2021/06/20 04:03:12;;;;;;;8.80;5.07;;;17.00;99.90;;;;;;4189368;28;20028;-59
2021/06/20 04:05:14;;;;;;;6.78;4.65;;;17.10;99.90;;;;;;4190334;28;20040;-57
2021/06/20 04:07:16;;;;;;;9.73;4.50;;;17.10;99.90;;;;;;4189294;28;20048;-57
2021/06/20 04:09:18;;;;;;;7.22;5.10;;;17.20;99.90;;;;;;4189899;28;20912;-59
2021/06/20 04:11:19;;;;;;;7.03;5.07;;;17.20;99.90;;;;;;4189178;28;20028;-58
2021/06/20 04:13:20;;;;;;;6.38;4.70;;;17.20;99.90;;;;;;4190077;28;20024;-61
2021/06/20 04:15:21;;;;;;;8.95;5.90;;;17.30;99.90;;;;;;4188560;28;20086;-62
2021/06/20 04:17:22;;;;;;;10.95;5.90;;;17.40;99.90;;;;;;4189982;28;20439;-61
2021/06/20 04:19:24;;;;;;;8.80;5.38;;;17.40;99.90;;;;;;4187935;28;20463;-61
2021/06/20 04:21:25;;;;;;;8.45;4.97;;;17.30;99.90;;;;;;4193406;28;20900;-60
2021/06/20 04:23:26;;;;;;;9.80;5.15;;;17.20;99.90;;;;;;4191873;28;20102;-60
2021/06/20 04:25:28;;;;;;;9.20;5.57;;;17.20;99.90;;;;;;4192770;28;20423;-59
2021/06/20 04:27:29;;;;;;;8.45;5.28;;;17.10;99.90;;;;;;4193174;28;20029;-59
2021/06/20 04:29:30;;;;;;;9.02;5.35;;;17.10;99.90;;;;;;4192337;28;20025;-57
2021/06/20 04:31:32;;;;;;;11.23;6.03;;;17.10;99.90;;;;;;4192930;28;20024;-61
2021/06/20 04:33:33;;;;;;;9.25;7.05;;;17.20;99.90;;;;;;4191804;28;20028;-57
2021/06/20 04:35:34;;;;;;;10.70;7.22;;;17.30;99.90;;;;;;4192850;28;20546;-60
2021/06/20 04:37:35;;;;;;;10.35;6.50;;;17.80;99.90;;;;;;4190619;28;20307;-61
2021/06/20 04:39:36;;;;;;;11.95;7.15;;;18.20;99.90;;;;;;4192623;28;20451;-61
2021/06/20 04:41:39;;;;;;;11.60;7.18;;;18.50;99.90;;;;;;4191904;28;20032;-60
2021/06/20 04:45:51;;;;;;;11.23;7.22;;;20.10;99.90;;;;;;4191779;28;20511;-58
2021/06/20 04:47:54;;;;;;;13.70;11.75;;;21.10;99.90;;;;;;4193124;28;20037;-62
2021/06/20 04:49:55;;;;;;;11.68;9.77;;;22.10;99.90;;;;;;4191989;28;20041;-59
2021/06/20 04:51:56;;;;;;;9.45;8.25;;;22.90;99.90;;;;;;4192621;28;20081;-61
2021/06/20 04:53:58;;;;;;;10.70;7.50;;;23.60;99.90;;;;;;4190535;28;20451;-59
2021/06/20 04:55:59;;;;;;;9.20;7.25;;;24.00;99.90;;;;;;4191892;28;20024;-61
2021/06/20 04:58:01;;;;;;;7.95;6.40;;;24.40;99.90;;;;;;4191682;28;20032;-62
2021/06/20 05:00:04;;;;;;;7.88;5.90;;;25.00;99.90;;;;;;4191756;28;20480;-62
2021/06/20 05:02:05;;;;;;;7.80;5.03;;;25.70;99.90;;;;;;4192282;28;20438;-61
2021/06/20 05:04:07;;;;;;;9.90;4.07;;;26.00;99.90;;;;;;4194139;28;20044;-60
2021/06/20 05:06:08;;;;;;;5.38;3.50;;;26.30;99.90;;;;;;4202460;28;20048;-60
2021/06/20 05:08:09;;;;;;;4.40;3.75;;;26.40;99.90;;;;;;4190951;28;20048;-59
2021/06/20 05:10:11;;;;;;;6.40;3.38;;;26.40;99.90;;;;;;4194765;28;20044;-60
2021/06/20 05:12:13;;;;;;;8.90;3.78;;;26.40;99.90;;;;;;4190282;28;20054;-61
2021/06/20 05:14:14;;;;;;;7.43;3.95;;;26.70;99.90;;;;;;4192713;28;20082;-59
2021/06/20 05:16:15;;;;;;;3.40;2.60;;;26.60;99.90;;;;;;4191083;28;20077;-60
2021/06/20 05:18:17;;;;;;;2.80;2.53;;;26.50;99.90;;;;;;4191889;28;20515;-57
2021/06/20 05:20:18;;;;;;;9.35;3.13;;;26.40;99.90;;;;;;4191061;28;20504;-58
2021/06/20 05:22:19;;;;;;;6.03;2.53;;;26.50;99.90;;;;;;4192398;28;20029;-59
2021/06/20 05:24:21;;;;;;;6.97;2.13;;;26.60;99.90;;;;;;4191082;28;20025;-61
2021/06/20 05:26:22;;;;;;;1.92;1.60;;;26.80;99.90;;;;;;4191896;28;20020;-59
2021/06/20 05:28:23;;;;;;;3.70;1.50;;;26.50;99.90;;;;;;4191179;28;20922;-58
2021/06/20 05:30:24;;;;;;;2.05;1.92;;;26.00;99.90;;;;;;4191109;28;20090;-60
2021/06/20 05:32:26;;;;;;;3.15;2.15;;;25.60;99.90;;;;;;4191063;28;20286;-58
2021/06/20 05:34:27;;;;;;;2.60;2.20;;;25.60;99.90;;;;;;4191706;28;20040;-59
2021/06/20 05:36:28;;;;;;;4.80;2.03;;;25.50;99.90;;;;;;4192292;28;20510;-58
2021/06/20 05:38:29;;;;;;;4.57;2.45;;;25.60;99.90;;;;;;4191016;28;20048;-57
2021/06/20 05:40:31;;;;;;;2.58;1.88;;;26.10;99.90;;;;;;4192264;28;20439;-60
2021/06/20 05:42:32;;;;;;;3.67;1.90;;;26.40;99.90;;;;;;4190104;28;20117;-56
2021/06/20 05:44:33;;;;;;;2.47;1.80;;;26.60;99.80;;;;;;4191710;28;20078;-58
2021/06/20 05:46:35;;;;;;;2.78;1.98;;;26.80;99.50;;;;;;4190674;28;20468;-57
2021/06/20 05:48:36;;;;;;;2.28;1.63;;;27.30;98.90;;;;;;4176208;28;20045;-62
2021/06/20 05:50:37;;;;;;;1.80;1.70;;;27.60;97.80;;;;;;4174555;28;20037;-60
2021/06/20 05:52:38;;;;;;;2.95;1.95;;;27.50;97.90;;;;;;4179573;28;20549;-58
2021/06/20 05:54:39;;;;;;;2.70;1.52;;;28.10;97.40;;;;;;4190705;28;20427;-59
2021/06/20 05:56:40;;;;;;;2.25;1.30;;;28.30;96.50;;;;;;4191557;28;20028;-59
2021/06/20 05:58:41;;;;;;;3.88;1.60;;;28.80;95.70;;;;;;4190647;28;20037;-58
2021/06/20 06:00:42;;;;;;;4.13;1.35;;;28.80;95.00;;;;;;4191334;28;20071;-60
2021/06/20 06:02:44;;;;;;;3.13;1.67;;;29.10;94.40;;;;;;4191100;28;20044;-59
2021/06/20 06:04:45;;;;;;;1.30;1.02;;;29.50;93.80;;;;;;4190832;28;20085;-59
2021/06/20 06:06:48;;;;;;;1.23;1.02;;;29.80;92.80;;;;;;4191301;28;20086;-59
2021/06/20 06:08:50;;;;;;;3.72;1.17;;;30.00;91.60;;;;;;4189621;28;20791;-60
2021/06/20 06:10:51;;;;;;;2.90;1.33;;;29.90;91.00;;;;;;4191145;28;20032;-61
2021/06/20 06:12:52;;;;;;;2.00;1.02;;;30.00;90.70;;;;;;4191328;28;20044;-61
2021/06/20 06:14:54;;;;;;;1.75;1.40;;;30.00;90.00;;;;;;4191921;28;20036;-59
2021/06/20 06:16:56;;;;;;;1.48;1.38;;;29.90;89.90;;;;;;4190442;28;20032;-62
2021/06/20 06:18:57;;;;;;;2.22;1.40;;;29.80;89.30;;;;;;4191825;28;20094;-60
2021/06/20 06:20:58;;;;;;;2.67;1.92;;;29.90;88.90;;;;;;4189799;28;20056;-61
2021/06/20 06:22:59;;;;;;;2.30;1.95;;;30.10;87.80;;;;;;4191187;28;20036;-58
2021/06/20 06:25:01;;;;;;;2.20;1.50;;;30.50;86.10;;;;;;4190262;28;20561;-61
2021/06/20 06:27:02;;;;;;;2.53;1.27;;;30.70;84.60;;;;;;4191283;28;20040;-62
2021/06/20 06:29:04;;;;;;;2.70;1.25;;;30.70;83.70;;;;;;4190146;28;20070;-59
2021/06/20 06:31:05;;;;;;;1.38;1.27;;;30.70;83.60;;;;;;4190575;28;20032;-61
2021/06/20 06:33:07;;;;;;;2.60;1.05;;;30.80;83.40;;;;;;4190562;28;20041;-57
2021/06/20 06:35:08;;;;;;;2.17;1.38;;;30.70;83.10;;;;;;4190885;28;20090;-59
2021/06/20 06:37:10;;;;;;;3.05;1.08;;;30.90;82.20;;;;;;4190589;28;20093;-57
2021/06/20 06:39:11;;;;;;;5.25;1.00;;;31.00;80.80;;;;;;4190197;28;20036;-59
2021/06/20 06:41:12;;;;;;;1.67;1.10;;;30.30;80.50;;;;;;4191159;28;20098;-58
2021/06/20 06:43:14;;;;;;;5.38;2.05;;;30.00;81.20;;;;;;4189131;28;20496;-58
2021/06/20 06:45:16;;;;;;;1.27;0.98;;;29.90;81.20;;;;;;4191129;28;20044;-58
2021/06/20 06:47:17;;;;;;;1.55;0.80;;;30.00;80.00;;;;;;4189856;28;20041;-58
2021/06/20 06:49:19;;;;;;;1.88;0.60;;;29.90;78.90;;;;;;4191154;28;20524;-59
2021/06/20 06:51:20;;;;;;;0.50;0.50;;;29.90;78.40;;;;;;4190158;28;20736;-56
2021/06/20 06:53:22;;;;;;;1.48;0.70;;;29.80;77.40;;;;;;4190350;28;20028;-59
2021/06/20 06:55:23;;;;;;;0.70;0.57;;;29.80;76.40;;;;;;4189061;28;20037;-61
2021/06/20 06:57:25;;;;;;;2.17;0.70;;;29.90;75.70;;;;;;4191950;28;20488;-61
2021/06/20 06:59:26;;;;;;;0.82;0.82;;;29.90;75.50;;;;;;4189158;28;20032;-56
2021/06/20 07:01:28;;;;;;;1.40;0.60;;;30.20;75.40;;;;;;4191085;28;20040;-61
2021/06/20 07:03:29;;;;;;;1.60;0.60;;;30.20;74.20;;;;;;4190234;28;20028;-61
2021/06/20 07:05:30;;;;;;;1.38;0.30;;;29.90;74.10;;;;;;4190195;28;20473;-59
2021/06/20 07:07:33;;;;;;;3.30;0.55;;;29.70;73.90;;;;;;4189572;28;20420;-56
2021/06/20 07:09:34;;;;;;;0.65;0.50;;;29.50;74.30;;;;;;4190104;28;20058;-59
2021/06/20 07:11:36;;;;;;;0.57;0.57;;;29.60;73.90;;;;;;4191034;28;20049;-60
2021/06/20 07:13:37;;;;;;;1.40;0.43;;;29.50;73.40;;;;;;4189361;28;20089;-63
2021/06/20 07:15:38;;;;;;;1.77;0.80;;;29.40;73.50;;;;;;4189254;28;20033;-64
2021/06/20 07:17:39;;;;;;;1.10;0.82;;;29.70;73.70;;;;;;4189647;28;20090;-61
2021/06/20 07:19:40;;;;;;;0.70;0.68;;;30.00;73.30;;;;;;4190974;28;20507;-60
2021/06/20 07:21:42;;;;;;;2.35;1.55;;;30.20;72.30;;;;;;4189296;28;20200;-60
2021/06/20 07:23:43;;;;;;;0.85;0.60;;;30.10;72.10;;;;;;4190555;28;20033;-59
2021/06/20 07:25:44;;;;;;;0.60;0.60;;;29.90;72.50;;;;;;4188944;28;20020;-60
2021/06/20 07:27:46;;;;;;;1.38;0.50;;;30.10;72.50;;;;;;4190654;28;20423;-60
2021/06/20 07:29:47;;;;;;;1.35;0.50;;;30.20;72.20;;;;;;4189156;28;20082;-59
2021/06/20 07:31:49;;;;;;;2.13;0.73;;;29.90;72.00;;;;;;4173893;28;20044;-60
2021/06/20 07:33:52;;;;;;;0.50;0.50;;;29.70;71.60;;;;;;4189053;28;20082;-58
2021/06/20 07:35:53;;;;;;;2.15;0.60;;;29.40;71.80;;;;;;4189998;28;20029;-60
2021/06/20 07:37:54;;;;;;;1.00;0.50;;;29.30;72.10;;;;;;4189066;28;20032;-59
2021/06/20 07:39:55;;;;;;;1.20;0.38;;;29.10;72.40;;;;;;4189612;28;20028;-60
2021/06/20 07:41:57;;;;;;;0.45;0.45;;;29.10;71.40;;;;;;4189524;28;20502;-61
2021/06/20 07:43:58;;;;;;;2.63;0.68;;;28.80;71.90;;;;;;4189273;28;20074;-60
2021/06/20 07:46:00;;;;;;;0.35;0.35;;;29.10;71.80;;;;;;4190437;28;20036;-60
2021/06/20 07:48:01;;;;;;;0.32;0.32;;;28.90;71.50;;;;;;4188638;28;20090;-64
2021/06/20 07:50:04;;;;;;;0.40;0.40;;;28.90;70.50;;;;;;4190082;28;20137;-64
2021/06/20 07:52:05;;;;;;;1.35;0.50;;;29.20;69.60;;;;;;4188988;28;20029;-59
2021/06/20 07:54:06;;;;;;;0.40;0.40;;;29.00;69.10;;;;;;4189921;28;20045;-61
2021/06/20 07:56:08;;;;;;;3.03;0.50;;;28.60;69.20;;;;;;4188574;28;20642;-61
2021/06/20 07:58:09;;;;;;;1.27;0.45;;;28.00;69.70;;;;;;4190283;28;20527;-61
2021/06/20 08:00:11;;;;;;;0.40;0.40;;;27.70;69.80;;;;;;4188818;28;20024;-60
2021/06/20 08:02:13;;;;;;;0.60;0.60;;;27.70;70.60;;;;;;4189606;28;20110;-61
2021/06/20 08:04:14;;;;;;;1.88;0.38;;;27.70;70.80;;;;;;4188907;28;20106;-61
2021/06/20 08:06:15;;;;;;;0.47;0.40;;;27.90;70.40;;;;;;4178513;28;20049;-61
2021/06/20 08:08:18;;;;;;;1.13;0.68;;;28.00;71.00;;;;;;4172789;28;20096;-62
2021/06/20 08:10:19;;;;;;;1.85;0.47;;;28.30;71.40;;;;;;4172848;28;20427;-60
2021/06/20 08:12:20;;;;;;;1.77;0.55;;;28.20;71.00;;;;;;4174056;28;20434;-61
2021/06/20 08:14:21;;;;;;;1.42;0.70;;;28.20;71.30;;;;;;4172736;28;20762;-65
2021/06/20 08:16:22;;;;;;;1.40;0.60;;;28.40;71.40;;;;;;4174106;28;20095;-63
2021/06/20 08:18:23;;;;;;;1.67;0.60;;;28.60;71.40;;;;;;4188780;28;20028;-61
2021/06/20 08:20:25;;;;;;;0.55;0.55;;;28.70;71.60;;;;;;4189909;28;20056;-60
2021/06/20 08:22:27;;;;;;;0.55;0.55;;;28.80;72.20;;;;;;4188852;28;20488;-60
2021/06/20 08:24:28;;;;;;;0.50;0.50;;;28.90;72.50;;;;;;4190453;28;20044;-62
2021/06/20 08:26:29;;;;;;;0.93;0.40;;;29.10;72.40;;;;;;4188646;28;20032;-60
2021/06/20 08:28:32;;;;;;;2.10;0.57;;;29.10;71.90;;;;;;4189839;28;20082;-60
2021/06/20 08:30:33;;;;;;;0.60;0.60;;;28.90;70.50;;;;;;4188595;28;20082;-61
2021/06/20 08:32:34;;;;;;;2.53;0.70;;;28.60;70.40;;;;;;4189243;28;20139;-62
2021/06/20 08:34:36;;;;;;;0.75;0.75;;;28.50;70.20;;;;;;4187594;28;20037;-60
2021/06/20 08:36:37;;;;;;;4.35;0.70;;;28.20;69.80;;;;;;4189599;28;20033;-61
2021/06/20 08:38:38;;;;;;;1.70;0.82;;;28.10;70.60;;;;;;4188903;28;20426;-60
2021/06/20 08:40:42;;;;;;;0.50;0.47;;;28.20;70.10;;;;;;4189177;28;20033;-61
2021/06/20 08:42:43;;;;;;;0.55;0.55;;;27.90;69.50;;;;;;4188715;28;20132;-61
2021/06/20 08:44:44;;;;;;;0.82;0.60;;;27.70;70.00;;;;;;4188683;28;20090;-61
2021/06/20 08:46:47;;;;;;;0.50;0.43;;;28.00;70.00;;;;;;4188930;28;20038;-62
2021/06/20 08:48:48;;;;;;;3.03;0.70;;;28.20;70.30;;;;;;4184494;28;20109;-61
2021/06/20 08:50:51;;;;;;;0.40;0.40;;;28.30;70.00;;;;;;4189089;28;20044;-59
2021/06/20 08:52:54;;;;;;;0.75;0.60;;;28.40;69.20;;;;;;4171857;28;20041;-60
2021/06/20 08:55:01;;;;;;;0.50;0.40;;;28.20;68.60;;;;;;4177423;28;20048;-60
2021/06/20 08:57:03;;;;;;;0.60;0.50;;;27.80;68.90;;;;;;4188187;28;20041;-60
2021/06/20 08:59:05;;;;;;;0.93;0.75;;;27.60;69.00;;;;;;4188905;28;20676;-62
2021/06/20 09:01:07;;;;;;;4.57;0.70;;;27.60;68.90;;;;;;4188045;28;20036;-61
2021/06/20 09:03:08;;;;;;;0.70;0.70;;;27.60;69.00;;;;;;4188081;28;20553;-60
2021/06/20 09:05:13;;;;;;;0.70;0.70;;;27.30;69.10;;;;;;4187556;28;20036;-62
2021/06/20 09:07:14;;;;;;;0.80;0.60;;;27.20;69.70;;;;;;4191373;28;20040;-59
2021/06/20 09:09:35;;;;;;;2.45;1.40;;;27.10;70.00;;;;;;4189702;28;20044;-59
2021/06/20 09:11:40;;;;;;;1.02;0.68;;;27.10;70.10;;;;;;4191990;28;20489;-60
2021/06/20 09:13:42;;;;;;;0.55;0.55;;;27.10;70.20;;;;;;4190721;28;20032;-59
2021/06/20 09:15:43;;;;;;;2.05;0.88;;;27.00;70.70;;;;;;4191972;28;20033;-64
2021/06/20 09:17:49;;;;;;;0.90;0.80;;;27.00;71.30;;;;;;4190365;28;20086;-59
2021/06/20 09:19:56;;;;;;;2.15;1.52;;;27.10;72.20;;;;;;4191151;28;20391;-58
2021/06/20 09:22:00;;;;;;;1.27;1.15;;;27.20;71.40;;;;;;4190162;28;20489;-60
2021/06/20 09:24:02;;;;;;;1.25;0.90;;;27.00;72.10;;;;;;4191008;28;20074;-61
2021/06/20 09:26:04;;;;;;;0.60;0.60;;;27.00;72.20;;;;;;4190573;28;20449;-60
2021/06/20 09:28:06;;;;;;;1.15;0.70;;;26.80;72.40;;;;;;4190735;28;20451;-60
2021/06/20 09:30:15;;;;;;;1.10;0.90;;;26.80;72.90;;;;;;4191266;28;20040;-60
2021/06/20 09:32:17;;;;;;;0.93;0.70;;;27.00;73.20;;;;;;4190499;28;20032;-62
2021/06/20 09:34:19;;;;;;;0.95;0.68;;;27.20;73.10;;;;;;4190763;28;20029;-60
2021/06/20 09:36:28;;;;;;;1.73;0.77;;;27.20;73.20;;;;;;4190168;28;20024;-59
2021/06/20 09:38:31;;;;;;;1.92;0.80;;;27.30;73.40;;;;;;4192468;28;20082;-59
2021/06/20 09:40:33;;;;;;;0.90;0.80;;;27.30;73.40;;;;;;4190766;28;20028;-60
2021/06/20 09:42:40;;;;;;;1.55;1.08;;;27.20;73.60;;;;;;4192032;28;20048;-61
2021/06/20 09:44:48;;;;;;;1.25;0.80;;;27.20;73.50;;;;;;4190700;28;20021;-61
2021/06/20 09:46:53;;;;;;;0.68;0.60;;;27.00;74.10;;;;;;4193111;28;20105;-60
2021/06/20 09:48:54;;;;;;;1.63;0.90;;;26.80;74.20;;;;;;4190721;28;20032;-60
2021/06/20 09:50:58;;;;;;;2.08;0.85;;;26.70;74.50;;;;;;4191645;28;20041;-58
2021/06/20 09:53:00;;;;;;;1.95;1.15;;;26.70;74.80;;;;;;4190128;28;20105;-59
2021/06/20 09:55:11;;;;;;;2.67;0.80;;;26.80;75.40;;;;;;4191339;28;20082;-60
2021/06/20 09:57:16;;;;;;;0.70;0.70;;;26.90;75.40;;;;;;4190414;28;20036;-59
2021/06/20 09:59:25;;;;;;;0.70;0.70;;;27.10;75.00;;;;;;4192317;28;20024;-59
2021/06/20 10:01:28;;;;;;;1.00;0.80;;;27.20;75.20;;;;;;4190845;28;20044;-59
2021/06/20 10:03:29;;;;;;;4.68;1.50;;;27.20;75.30;;;;;;4192050;28;20097;-58
2021/06/20 10:05:30;;;;;;;1.70;0.80;;;27.30;75.80;;;;;;4190620;28;20233;-59
2021/06/20 10:07:31;;;;;;;1.33;0.70;;;27.50;76.00;;;;;;4191148;28;20427;-59
2021/06/20 10:09:34;;;;;;;1.58;0.85;;;27.60;75.70;;;;;;4190548;28;20090;-59
2021/06/20 10:11:35;;;;;;;1.13;0.75;;;27.50;75.30;;;;;;4191607;28;20033;-60
2021/06/20 10:13:37;;;;;;;1.77;0.80;;;27.40;75.60;;;;;;4191129;28;20040;-59
2021/06/20 10:15:38;;;;;;;0.93;0.55;;;27.30;76.20;;;;;;4190876;28;20044;-59
2021/06/20 10:17:45;;;;;;;1.98;0.80;;;27.40;76.10;;;;;;4191352;28;20044;-59
2021/06/20 10:19:51;;;;;;;1.05;0.80;;;27.40;75.40;;;;;;4190407;28;20490;-58
2021/06/20 10:21:59;;;;;;;1.75;0.80;;;27.50;76.00;;;;;;4191390;28;20098;-59
2021/06/20 10:24:18;;;;;;;1.17;0.82;;;27.60;75.50;;;;;;4190297;28;20361;-59
2021/06/20 10:26:23;;;;;;;2.50;0.82;;;27.60;75.20;;;;;;4191420;28;20097;-60
2021/06/20 10:28:30;;;;;;;0.77;0.77;;;27.60;75.30;;;;;;4190391;28;20024;-60
2021/06/20 10:30:34;;;;;;;0.82;0.82;;;27.40;75.20;;;;;;4191351;28;20526;-60
2021/06/20 10:32:42;;;;;;;0.85;0.85;;;27.20;76.10;;;;;;4190352;28;20036;-60
2021/06/20 10:35:03;;;;;;;1.45;1.00;;;27.20;76.40;;;;;;4190321;28;20836;-60
2021/06/20 10:37:07;;;;;;;2.05;0.65;;;27.20;76.70;;;;;;4189968;28;21043;-60